sensor_id;sensor_type;location;lat;lon;timestamp;P1;durP1;ratioP1;P2;durP2;ratioP2
49942;SDS011;36011;53.362;58.948;2022-10-12T00:02:18;1.20;;;0.80;;
49942;SDS011;36011;53.362;58.948;2022-10-12T00:05:20;2.80;;;1.02;;
49942;SDS011;36011;53.362;58.948;2022-10-12T00:08:24;1.77;;;1.05;;
49942;SDS011;36011;53.362;58.948;2022-10-12T00:11:31;1.75;;;1.17;;
49942;SDS011;36011;53.362;58.948;2022-10-12T00:14:35;2.10;;;0.90;;
49942;SDS011;36011;53.362;58.948;2022-10-12T00:17:40;1.02;;;0.90;;
49942;SDS011;36011;53.362;58.948;2022-10-12T00:20:41;1.80;;;1.30;;
49942;SDS011;36011;53.362;58.948;2022-10-12T00:26:49;1.55;;;0.80;;
49942;SDS011;36011;53.362;58.948;2022-10-12T00:29:53;2.67;;;1.63;;
49942;SDS011;36011;53.362;58.948;2022-10-12T00:32:57;1.50;;;0.90;;
49942;SDS011;36011;53.362;58.948;2022-10-12T00:35:58;1.48;;;1.05;;
49942;SDS011;36011;53.362;58.948;2022-10-12T00:39:07;3.20;;;1.25;;
49942;SDS011;36011;53.362;58.948;2022-10-12T00:42:12;3.25;;;0.90;;
49942;SDS011;36011;53.362;58.948;2022-10-12T00:45:22;1.95;;;1.00;;
49942;SDS011;36011;53.362;58.948;2022-10-12T00:48:29;2.28;;;0.90;;
49942;SDS011;36011;53.362;58.948;2022-10-12T00:51:32;11.82;;;7.10;;
49942;SDS011;36011;53.362;58.948;2022-10-12T00:54:41;4.85;;;1.77;;
49942;SDS011;36011;53.362;58.948;2022-10-12T00:57:47;6.03;;;1.60;;
49942;SDS011;36011;53.362;58.948;2022-10-12T01:00:51;3.25;;;1.17;;
49942;SDS011;36011;53.362;58.948;2022-10-12T01:03:53;2.15;;;1.23;;
49942;SDS011;36011;53.362;58.948;2022-10-12T01:06:57;3.10;;;1.25;;
49942;SDS011;36011;53.362;58.948;2022-10-12T01:10:01;3.65;;;1.20;;
49942;SDS011;36011;53.362;58.948;2022-10-12T01:13:06;1.77;;;1.00;;
49942;SDS011;36011;53.362;58.948;2022-10-12T01:16:19;2.75;;;1.23;;
49942;SDS011;36011;53.362;58.948;2022-10-12T01:30:00;5.43;;;2.20;;
49942;SDS011;36011;53.362;58.948;2022-10-12T01:33:47;3.30;;;1.40;;
49942;SDS011;36011;53.362;58.948;2022-10-12T01:36:55;3.30;;;1.88;;
49942;SDS011;36011;53.362;58.948;2022-10-12T01:40:11;4.30;;;1.85;;
49942;SDS011;36011;53.362;58.948;2022-10-12T01:43:20;8.10;;;3.40;;
49942;SDS011;36011;53.362;58.948;2022-10-12T01:49:25;7.97;;;4.13;;
49942;SDS011;36011;53.362;58.948;2022-10-12T01:52:44;9.68;;;3.92;;
49942;SDS011;36011;53.362;58.948;2022-10-12T02:02:24;6.63;;;3.78;;
49942;SDS011;36011;53.362;58.948;2022-10-12T02:09:28;9.93;;;4.60;;
49942;SDS011;36011;53.362;58.948;2022-10-12T02:12:33;9.95;;;5.32;;
49942;SDS011;36011;53.362;58.948;2022-10-12T02:15:35;10.57;;;4.82;;
49942;SDS011;36011;53.362;58.948;2022-10-12T02:18:43;12.43;;;4.78;;
49942;SDS011;36011;53.362;58.948;2022-10-12T02:21:50;14.50;;;5.47;;
49942;SDS011;36011;53.362;58.948;2022-10-12T02:24:58;10.93;;;5.00;;
49942;SDS011;36011;53.362;58.948;2022-10-12T02:28:10;14.18;;;5.18;;
49942;SDS011;36011;53.362;58.948;2022-10-12T02:31:33;14.02;;;5.28;;
49942;SDS011;36011;53.362;58.948;2022-10-12T02:38:37;13.57;;;5.10;;
49942;SDS011;36011;53.362;58.948;2022-10-12T02:41:48;9.07;;;4.10;;
49942;SDS011;36011;53.362;58.948;2022-10-12T02:44:52;9.25;;;4.78;;
49942;SDS011;36011;53.362;58.948;2022-10-12T02:47:56;10.35;;;4.45;;
49942;SDS011;36011;53.362;58.948;2022-10-12T02:51:04;11.35;;;4.47;;
49942;SDS011;36011;53.362;58.948;2022-10-12T02:54:11;8.63;;;2.42;;
49942;SDS011;36011;53.362;58.948;2022-10-12T02:57:12;10.18;;;3.72;;
49942;SDS011;36011;53.362;58.948;2022-10-12T03:00:14;3.65;;;2.00;;
49942;SDS011;36011;53.362;58.948;2022-10-12T03:03:18;8.68;;;3.13;;
49942;SDS011;36011;53.362;58.948;2022-10-12T03:06:19;7.47;;;2.88;;
49942;SDS011;36011;53.362;58.948;2022-10-12T03:09:27;6.40;;;2.95;;
49942;SDS011;36011;53.362;58.948;2022-10-12T03:12:28;11.45;;;4.25;;
49942;SDS011;36011;53.362;58.948;2022-10-12T03:15:30;8.77;;;3.95;;
49942;SDS011;36011;53.362;58.948;2022-10-12T03:18:34;10.77;;;4.38;;
49942;SDS011;36011;53.362;58.948;2022-10-12T03:21:40;11.10;;;3.70;;
49942;SDS011;36011;53.362;58.948;2022-10-12T03:24:41;14.00;;;4.38;;
49942;SDS011;36011;53.362;58.948;2022-10-12T03:27:43;12.43;;;5.13;;
49942;SDS011;36011;53.362;58.948;2022-10-12T03:30:45;12.68;;;4.75;;
49942;SDS011;36011;53.362;58.948;2022-10-12T03:33:48;17.33;;;4.88;;
49942;SDS011;36011;53.362;58.948;2022-10-12T03:36:52;13.45;;;5.18;;
49942;SDS011;36011;53.362;58.948;2022-10-12T03:39:56;11.70;;;5.57;;
49942;SDS011;36011;53.362;58.948;2022-10-12T03:42:58;14.95;;;5.00;;
49942;SDS011;36011;53.362;58.948;2022-10-12T03:45:59;14.10;;;4.97;;
49942;SDS011;36011;53.362;58.948;2022-10-12T03:49:01;18.58;;;5.53;;
49942;SDS011;36011;53.362;58.948;2022-10-12T03:52:05;14.63;;;4.78;;
49942;SDS011;36011;53.362;58.948;2022-10-12T03:55:06;13.85;;;5.07;;
49942;SDS011;36011;53.362;58.948;2022-10-12T03:58:08;11.10;;;3.92;;
49942;SDS011;36011;53.362;58.948;2022-10-12T04:01:12;9.02;;;3.28;;
49942;SDS011;36011;53.362;58.948;2022-10-12T04:04:13;5.72;;;2.38;;
49942;SDS011;36011;53.362;58.948;2022-10-12T04:10:19;8.02;;;3.63;;
49942;SDS011;36011;53.362;58.948;2022-10-12T04:13:23;7.50;;;2.63;;
49942;SDS011;36011;53.362;58.948;2022-10-12T04:16:25;4.97;;;3.00;;
49942;SDS011;36011;53.362;58.948;2022-10-12T04:19:28;7.10;;;3.55;;
49942;SDS011;36011;53.362;58.948;2022-10-12T04:22:34;8.18;;;2.90;;
49942;SDS011;36011;53.362;58.948;2022-10-12T04:25:35;6.63;;;3.22;;
49942;SDS011;36011;53.362;58.948;2022-10-12T04:28:39;9.40;;;3.22;;
49942;SDS011;36011;53.362;58.948;2022-10-12T04:31:43;9.32;;;3.20;;
49942;SDS011;36011;53.362;58.948;2022-10-12T04:34:45;8.15;;;2.75;;
49942;SDS011;36011;53.362;58.948;2022-10-12T04:40:52;7.23;;;2.87;;
49942;SDS011;36011;53.362;58.948;2022-10-12T04:46:58;8.88;;;2.97;;
49942;SDS011;36011;53.362;58.948;2022-10-12T04:50:01;4.28;;;3.15;;
49942;SDS011;36011;53.362;58.948;2022-10-12T04:53:06;5.68;;;1.95;;
49942;SDS011;36011;53.362;58.948;2022-10-12T04:56:13;4.15;;;2.58;;
49942;SDS011;36011;53.362;58.948;2022-10-12T04:59:17;8.73;;;2.40;;
49942;SDS011;36011;53.362;58.948;2022-10-12T05:02:22;5.93;;;2.55;;
49942;SDS011;36011;53.362;58.948;2022-10-12T05:05:25;7.25;;;1.55;;
49942;SDS011;36011;53.362;58.948;2022-10-12T05:08:29;3.55;;;1.75;;
49942;SDS011;36011;53.362;58.948;2022-10-12T05:11:32;4.22;;;2.08;;
49942;SDS011;36011;53.362;58.948;2022-10-12T05:14:33;3.30;;;1.60;;
49942;SDS011;36011;53.362;58.948;2022-10-12T05:17:37;1.80;;;1.27;;
49942;SDS011;36011;53.362;58.948;2022-10-12T05:20:41;3.50;;;1.70;;
49942;SDS011;36011;53.362;58.948;2022-10-12T05:23:42;4.20;;;1.75;;
49942;SDS011;36011;53.362;58.948;2022-10-12T05:26:46;3.05;;;1.20;;
49942;SDS011;36011;53.362;58.948;2022-10-12T05:29:54;5.07;;;2.00;;
49942;SDS011;36011;53.362;58.948;2022-10-12T05:33:02;6.55;;;1.85;;
49942;SDS011;36011;53.362;58.948;2022-10-12T05:36:03;7.95;;;2.13;;
49942;SDS011;36011;53.362;58.948;2022-10-12T05:39:05;6.65;;;1.85;;
49942;SDS011;36011;53.362;58.948;2022-10-12T05:45:10;6.97;;;2.67;;
49942;SDS011;36011;53.362;58.948;2022-10-12T05:48:17;7.40;;;3.17;;
49942;SDS011;36011;53.362;58.948;2022-10-12T05:51:21;10.48;;;5.53;;
49942;SDS011;36011;53.362;58.948;2022-10-12T05:54:22;8.85;;;3.30;;
49942;SDS011;36011;53.362;58.948;2022-10-12T05:57:29;3.85;;;2.13;;
49942;SDS011;36011;53.362;58.948;2022-10-12T06:00:31;5.47;;;2.30;;
49942;SDS011;36011;53.362;58.948;2022-10-12T06:03:35;6.35;;;3.08;;
49942;SDS011;36011;53.362;58.948;2022-10-12T06:06:36;8.60;;;3.05;;
49942;SDS011;36011;53.362;58.948;2022-10-12T06:09:43;5.03;;;2.70;;
49942;SDS011;36011;53.362;58.948;2022-10-12T06:12:45;8.73;;;3.13;;
49942;SDS011;36011;53.362;58.948;2022-10-12T06:15:47;6.82;;;2.40;;
49942;SDS011;36011;53.362;58.948;2022-10-12T06:18:53;3.10;;;2.03;;
49942;SDS011;36011;53.362;58.948;2022-10-12T06:21:57;4.38;;;2.00;;
49942;SDS011;36011;53.362;58.948;2022-10-12T06:24:58;7.97;;;2.40;;
49942;SDS011;36011;53.362;58.948;2022-10-12T06:28:00;4.45;;;2.03;;
49942;SDS011;36011;53.362;58.948;2022-10-12T06:31:01;4.67;;;1.67;;
49942;SDS011;36011;53.362;58.948;2022-10-12T06:34:05;6.85;;;2.25;;
49942;SDS011;36011;53.362;58.948;2022-10-12T06:37:09;5.68;;;2.45;;
49942;SDS011;36011;53.362;58.948;2022-10-12T06:40:12;3.75;;;2.38;;
49942;SDS011;36011;53.362;58.948;2022-10-12T06:43:16;2.85;;;1.70;;
49942;SDS011;36011;53.362;58.948;2022-10-12T06:46:18;5.28;;;3.63;;
49942;SDS011;36011;53.362;58.948;2022-10-12T06:49:24;5.60;;;2.60;;
49942;SDS011;36011;53.362;58.948;2022-10-12T06:52:29;5.85;;;2.85;;
49942;SDS011;36011;53.362;58.948;2022-10-12T06:55:33;4.65;;;2.67;;
49942;SDS011;36011;53.362;58.948;2022-10-12T06:58:42;5.53;;;3.17;;
49942;SDS011;36011;53.362;58.948;2022-10-12T07:01:43;5.40;;;2.22;;
49942;SDS011;36011;53.362;58.948;2022-10-12T07:04:49;7.40;;;2.00;;
49942;SDS011;36011;53.362;58.948;2022-10-12T07:07:53;4.30;;;1.83;;
49942;SDS011;36011;53.362;58.948;2022-10-12T07:11:00;4.78;;;1.30;;
49942;SDS011;36011;53.362;58.948;2022-10-12T07:14:03;3.15;;;0.90;;
49942;SDS011;36011;53.362;58.948;2022-10-12T07:17:04;4.53;;;1.15;;
49942;SDS011;36011;53.362;58.948;2022-10-12T07:20:08;3.45;;;1.30;;
49942;SDS011;36011;53.362;58.948;2022-10-12T07:23:09;2.90;;;1.45;;
49942;SDS011;36011;53.362;58.948;2022-10-12T07:26:13;4.22;;;1.50;;
49942;SDS011;36011;53.362;58.948;2022-10-12T07:29:17;3.78;;;1.33;;
49942;SDS011;36011;53.362;58.948;2022-10-12T07:32:21;3.90;;;1.40;;
49942;SDS011;36011;53.362;58.948;2022-10-12T07:35:23;3.80;;;1.63;;
49942;SDS011;36011;53.362;58.948;2022-10-12T07:38:24;3.87;;;2.77;;
49942;SDS011;36011;53.362;58.948;2022-10-12T07:41:29;4.00;;;1.90;;
49942;SDS011;36011;53.362;58.948;2022-10-12T07:44:30;3.90;;;1.50;;
49942;SDS011;36011;53.362;58.948;2022-10-12T07:47:32;2.17;;;1.13;;
49942;SDS011;36011;53.362;58.948;2022-10-12T07:50:34;1.40;;;0.80;;
49942;SDS011;36011;53.362;58.948;2022-10-12T07:53:38;3.35;;;1.00;;
49942;SDS011;36011;53.362;58.948;2022-10-12T07:56:40;1.52;;;0.80;;
49942;SDS011;36011;53.362;58.948;2022-10-12T07:59:46;2.97;;;1.25;;
49942;SDS011;36011;53.362;58.948;2022-10-12T08:02:48;2.65;;;1.58;;
49942;SDS011;36011;53.362;58.948;2022-10-12T08:05:49;5.90;;;1.55;;
49942;SDS011;36011;53.362;58.948;2022-10-12T08:08:50;3.47;;;1.88;;
49942;SDS011;36011;53.362;58.948;2022-10-12T08:11:52;1.70;;;0.80;;
49942;SDS011;36011;53.362;58.948;2022-10-12T08:14:59;1.15;;;0.68;;
49942;SDS011;36011;53.362;58.948;2022-10-12T08:18:03;3.53;;;1.08;;
49942;SDS011;36011;53.362;58.948;2022-10-12T08:21:08;2.22;;;0.82;;
49942;SDS011;36011;53.362;58.948;2022-10-12T08:24:13;2.03;;;0.80;;
49942;SDS011;36011;53.362;58.948;2022-10-12T08:27:15;4.35;;;3.35;;
49942;SDS011;36011;53.362;58.948;2022-10-12T08:30:16;5.38;;;2.60;;
49942;SDS011;36011;53.362;58.948;2022-10-12T08:33:20;3.03;;;1.20;;
49942;SDS011;36011;53.362;58.948;2022-10-12T08:36:28;1.90;;;1.08;;
49942;SDS011;36011;53.362;58.948;2022-10-12T08:39:29;1.13;;;0.40;;
49942;SDS011;36011;53.362;58.948;2022-10-12T08:42:55;1.30;;;0.50;;
49942;SDS011;36011;53.362;58.948;2022-10-12T08:46:03;2.65;;;0.75;;
49942;SDS011;36011;53.362;58.948;2022-10-12T08:49:09;1.53;;;0.80;;
49942;SDS011;36011;53.362;58.948;2022-10-12T08:55:32;1.17;;;0.60;;
49942;SDS011;36011;53.362;58.948;2022-10-12T08:58:45;1.85;;;0.63;;
49942;SDS011;36011;53.362;58.948;2022-10-12T09:01:59;2.70;;;0.73;;
49942;SDS011;36011;53.362;58.948;2022-10-12T09:05:28;1.40;;;0.70;;
49942;SDS011;36011;53.362;58.948;2022-10-12T09:08:49;1.08;;;0.65;;
49942;SDS011;36011;53.362;58.948;2022-10-12T09:12:24;2.22;;;0.73;;
49942;SDS011;36011;53.362;58.948;2022-10-12T09:15:36;7.38;;;4.70;;
49942;SDS011;36011;53.362;58.948;2022-10-12T09:18:48;4.32;;;2.97;;
49942;SDS011;36011;53.362;58.948;2022-10-12T09:21:52;4.47;;;1.70;;
49942;SDS011;36011;53.362;58.948;2022-10-12T09:24:54;2.95;;;1.23;;
49942;SDS011;36011;53.362;58.948;2022-10-12T09:28:44;3.13;;;0.90;;
49942;SDS011;36011;53.362;58.948;2022-10-12T09:31:37;0.47;;;0.40;;
49942;SDS011;36011;53.362;58.948;2022-10-12T09:34:52;0.68;;;0.35;;
49942;SDS011;36011;53.362;58.948;2022-10-12T09:38:00;1.88;;;0.22;;
49942;SDS011;36011;53.362;58.948;2022-10-12T09:41:02;0.20;;;0.10;;
49942;SDS011;36011;53.362;58.948;2022-10-12T09:44:08;1.80;;;0.30;;
49942;SDS011;36011;53.362;58.948;2022-10-12T09:47:25;0.30;;;0.20;;
49942;SDS011;36011;53.362;58.948;2022-10-12T09:50:52;1.13;;;0.50;;
49942;SDS011;36011;53.362;58.948;2022-10-12T09:54:01;1.67;;;0.40;;
49942;SDS011;36011;53.362;58.948;2022-10-12T09:57:04;0.63;;;0.35;;
49942;SDS011;36011;53.362;58.948;2022-10-12T10:00:22;1.23;;;0.47;;
49942;SDS011;36011;53.362;58.948;2022-10-12T10:03:37;0.30;;;0.20;;
49942;SDS011;36011;53.362;58.948;2022-10-12T10:06:39;0.60;;;0.20;;
49942;SDS011;36011;53.362;58.948;2022-10-12T10:09:46;1.20;;;0.60;;
49942;SDS011;36011;53.362;58.948;2022-10-12T10:13:04;1.02;;;0.47;;
49942;SDS011;36011;53.362;58.948;2022-10-12T10:16:09;1.15;;;0.40;;
49942;SDS011;36011;53.362;58.948;2022-10-12T10:19:17;1.65;;;1.00;;
49942;SDS011;36011;53.362;58.948;2022-10-12T10:22:26;1.98;;;0.60;;
49942;SDS011;36011;53.362;58.948;2022-10-12T10:25:32;0.90;;;0.65;;
49942;SDS011;36011;53.362;58.948;2022-10-12T10:28:35;1.95;;;0.50;;
49942;SDS011;36011;53.362;58.948;2022-10-12T10:31:41;4.78;;;2.85;;
49942;SDS011;36011;53.362;58.948;2022-10-12T10:38:22;0.50;;;0.43;;
49942;SDS011;36011;53.362;58.948;2022-10-12T10:41:44;1.52;;;0.43;;
49942;SDS011;36011;53.362;58.948;2022-10-12T10:44:51;0.70;;;0.40;;
49942;SDS011;36011;53.362;58.948;2022-10-12T10:48:05;0.88;;;0.52;;
49942;SDS011;36011;53.362;58.948;2022-10-12T10:51:09;0.63;;;0.50;;
49942;SDS011;36011;53.362;58.948;2022-10-12T10:54:15;1.35;;;0.45;;
49942;SDS011;36011;53.362;58.948;2022-10-12T10:57:19;1.48;;;0.47;;
49942;SDS011;36011;53.362;58.948;2022-10-12T11:00:24;1.17;;;0.80;;
49942;SDS011;36011;53.362;58.948;2022-10-12T11:03:37;0.88;;;0.35;;
49942;SDS011;36011;53.362;58.948;2022-10-12T11:07:02;1.65;;;0.47;;
49942;SDS011;36011;53.362;58.948;2022-10-12T11:10:21;0.47;;;0.30;;
49942;SDS011;36011;53.362;58.948;2022-10-12T11:13:33;0.90;;;0.20;;
49942;SDS011;36011;53.362;58.948;2022-10-12T11:16:53;0.68;;;0.30;;
49942;SDS011;36011;53.362;58.948;2022-10-12T11:27:05;1.30;;;0.30;;
49942;SDS011;36011;53.362;58.948;2022-10-12T11:30:17;0.70;;;0.50;;
49942;SDS011;36011;53.362;58.948;2022-10-12T11:33:37;1.08;;;0.70;;
49942;SDS011;36011;53.362;58.948;2022-10-12T11:36:42;2.85;;;1.10;;
49942;SDS011;36011;53.362;58.948;2022-10-12T11:39:47;1.40;;;0.70;;
49942;SDS011;36011;53.362;58.948;2022-10-12T11:42:54;0.40;;;0.20;;
49942;SDS011;36011;53.362;58.948;2022-10-12T11:46:01;0.50;;;0.40;;
49942;SDS011;36011;53.362;58.948;2022-10-12T11:49:12;0.30;;;0.17;;
49942;SDS011;36011;53.362;58.948;2022-10-12T11:52:25;0.40;;;0.40;;
49942;SDS011;36011;53.362;58.948;2022-10-12T11:55:43;1.20;;;0.45;;
49942;SDS011;36011;53.362;58.948;2022-10-12T11:59:09;1.23;;;0.70;;
49942;SDS011;36011;53.362;58.948;2022-10-12T12:02:23;1.98;;;0.80;;
49942;SDS011;36011;53.362;58.948;2022-10-12T12:05:32;0.93;;;0.60;;
49942;SDS011;36011;53.362;58.948;2022-10-12T12:11:43;1.02;;;0.70;;
49942;SDS011;36011;53.362;58.948;2022-10-12T12:18:30;2.78;;;1.10;;
49942;SDS011;36011;53.362;58.948;2022-10-12T12:21:36;0.82;;;0.40;;
49942;SDS011;36011;53.362;58.948;2022-10-12T12:25:15;1.50;;;0.60;;
49942;SDS011;36011;53.362;58.948;2022-10-12T12:28:22;1.08;;;0.40;;
49942;SDS011;36011;53.362;58.948;2022-10-12T12:31:25;2.20;;;0.70;;
49942;SDS011;36011;53.362;58.948;2022-10-12T12:34:28;2.55;;;0.60;;
49942;SDS011;36011;53.362;58.948;2022-10-12T12:37:33;1.15;;;0.60;;
49942;SDS011;36011;53.362;58.948;2022-10-12T12:40:35;3.45;;;1.20;;
49942;SDS011;36011;53.362;58.948;2022-10-12T12:43:38;2.50;;;0.65;;
49942;SDS011;36011;53.362;58.948;2022-10-12T12:49:57;5.18;;;2.72;;
49942;SDS011;36011;53.362;58.948;2022-10-12T12:53:21;7.70;;;2.70;;
49942;SDS011;36011;53.362;58.948;2022-10-12T13:23:23;7.53;;;3.65;;
49942;SDS011;36011;53.362;58.948;2022-10-12T13:29:39;7.45;;;3.75;;
49942;SDS011;36011;53.362;58.948;2022-10-12T13:35:59;8.63;;;2.90;;
49942;SDS011;36011;53.362;58.948;2022-10-12T13:39:13;6.80;;;2.88;;
49942;SDS011;36011;53.362;58.948;2022-10-12T13:42:20;7.32;;;2.97;;
49942;SDS011;36011;53.362;58.948;2022-10-12T13:45:28;6.15;;;2.67;;
49942;SDS011;36011;53.362;58.948;2022-10-12T13:48:34;8.63;;;3.38;;
49942;SDS011;36011;53.362;58.948;2022-10-12T13:51:38;8.98;;;2.55;;
49942;SDS011;36011;53.362;58.948;2022-10-12T13:54:43;5.70;;;2.70;;
49942;SDS011;36011;53.362;58.948;2022-10-12T13:57:51;5.75;;;2.13;;
49942;SDS011;36011;53.362;58.948;2022-10-12T14:00:54;7.65;;;2.13;;
49942;SDS011;36011;53.362;58.948;2022-10-12T14:04:02;3.17;;;1.75;;
49942;SDS011;36011;53.362;58.948;2022-10-12T14:07:14;12.70;;;6.63;;
49942;SDS011;36011;53.362;58.948;2022-10-12T14:10:28;7.47;;;3.05;;
49942;SDS011;36011;53.362;58.948;2022-10-12T14:13:35;5.78;;;2.78;;
49942;SDS011;36011;53.362;58.948;2022-10-12T14:16:37;5.80;;;2.25;;
49942;SDS011;36011;53.362;58.948;2022-10-12T14:22:47;3.90;;;1.75;;
49942;SDS011;36011;53.362;58.948;2022-10-12T14:25:50;8.13;;;1.80;;
49942;SDS011;36011;53.362;58.948;2022-10-12T14:28:54;4.15;;;2.20;;
49942;SDS011;36011;53.362;58.948;2022-10-12T14:41:49;5.65;;;2.63;;
49942;SDS011;36011;53.362;58.948;2022-10-12T14:44:53;9.30;;;3.00;;
49942;SDS011;36011;53.362;58.948;2022-10-12T14:47:57;10.73;;;3.97;;
49942;SDS011;36011;53.362;58.948;2022-10-12T14:51:01;12.25;;;5.03;;
49942;SDS011;36011;53.362;58.948;2022-10-12T14:54:05;8.80;;;4.80;;
49942;SDS011;36011;53.362;58.948;2022-10-12T14:57:15;16.27;;;5.57;;
49942;SDS011;36011;53.362;58.948;2022-10-12T15:00:32;15.10;;;7.33;;
49942;SDS011;36011;53.362;58.948;2022-10-12T15:03:39;12.43;;;5.85;;
49942;SDS011;36011;53.362;58.948;2022-10-12T15:06:49;14.90;;;6.85;;
49942;SDS011;36011;53.362;58.948;2022-10-12T15:09:51;16.00;;;6.40;;
49942;SDS011;36011;53.362;58.948;2022-10-12T15:12:55;11.18;;;6.72;;
49942;SDS011;36011;53.362;58.948;2022-10-12T15:16:00;12.98;;;6.65;;
49942;SDS011;36011;53.362;58.948;2022-10-12T15:19:06;15.60;;;6.75;;
49942;SDS011;36011;53.362;58.948;2022-10-12T15:22:17;15.30;;;6.15;;
49942;SDS011;36011;53.362;58.948;2022-10-12T15:25:23;16.60;;;8.57;;
49942;SDS011;36011;53.362;58.948;2022-10-12T15:28:37;15.00;;;7.38;;
49942;SDS011;36011;53.362;58.948;2022-10-12T15:31:39;17.05;;;8.23;;
49942;SDS011;36011;53.362;58.948;2022-10-12T15:34:41;12.65;;;6.88;;
49942;SDS011;36011;53.362;58.948;2022-10-12T15:37:45;11.35;;;6.20;;
49942;SDS011;36011;53.362;58.948;2022-10-12T15:40:49;11.82;;;5.65;;
49942;SDS011;36011;53.362;58.948;2022-10-12T15:43:53;10.30;;;4.95;;
49942;SDS011;36011;53.362;58.948;2022-10-12T15:46:57;11.13;;;5.05;;
49942;SDS011;36011;53.362;58.948;2022-10-12T15:50:01;11.98;;;5.50;;
49942;SDS011;36011;53.362;58.948;2022-10-12T15:53:09;10.23;;;4.88;;
49942;SDS011;36011;53.362;58.948;2022-10-12T15:56:15;11.52;;;4.78;;
49942;SDS011;36011;53.362;58.948;2022-10-12T15:59:20;9.23;;;4.63;;
49942;SDS011;36011;53.362;58.948;2022-10-12T16:02:24;10.48;;;4.97;;
49942;SDS011;36011;53.362;58.948;2022-10-12T16:05:30;16.05;;;7.47;;
49942;SDS011;36011;53.362;58.948;2022-10-12T16:08:36;10.60;;;4.78;;
49942;SDS011;36011;53.362;58.948;2022-10-12T16:11:38;6.28;;;3.78;;
49942;SDS011;36011;53.362;58.948;2022-10-12T16:14:42;7.68;;;3.78;;
49942;SDS011;36011;53.362;58.948;2022-10-12T16:17:44;7.80;;;3.80;;
49942;SDS011;36011;53.362;58.948;2022-10-12T16:20:47;9.00;;;4.57;;
49942;SDS011;36011;53.362;58.948;2022-10-12T16:23:51;6.95;;;4.38;;
49942;SDS011;36011;53.362;58.948;2022-10-12T16:26:52;6.72;;;4.00;;
49942;SDS011;36011;53.362;58.948;2022-10-12T16:29:54;7.70;;;4.07;;
49942;SDS011;36011;53.362;58.948;2022-10-12T16:33:00;9.88;;;4.38;;
49942;SDS011;36011;53.362;58.948;2022-10-12T16:36:06;7.93;;;4.00;;
49942;SDS011;36011;53.362;58.948;2022-10-12T16:39:15;6.53;;;3.72;;
49942;SDS011;36011;53.362;58.948;2022-10-12T16:42:19;8.23;;;3.97;;
49942;SDS011;36011;53.362;58.948;2022-10-12T16:45:22;5.57;;;3.72;;
49942;SDS011;36011;53.362;58.948;2022-10-12T16:48:25;8.10;;;3.70;;
49942;SDS011;36011;53.362;58.948;2022-10-12T16:51:26;7.25;;;3.42;;
49942;SDS011;36011;53.362;58.948;2022-10-12T16:54:37;8.15;;;3.03;;
49942;SDS011;36011;53.362;58.948;2022-10-12T16:57:39;4.78;;;2.78;;
49942;SDS011;36011;53.362;58.948;2022-10-12T17:00:43;5.88;;;2.75;;
49942;SDS011;36011;53.362;58.948;2022-10-12T17:03:52;5.60;;;2.70;;
49942;SDS011;36011;53.362;58.948;2022-10-12T17:06:53;4.95;;;2.13;;
49942;SDS011;36011;53.362;58.948;2022-10-12T17:10:00;5.25;;;2.50;;
49942;SDS011;36011;53.362;58.948;2022-10-12T17:16:06;5.93;;;2.60;;
49942;SDS011;36011;53.362;58.948;2022-10-12T17:19:30;5.07;;;2.25;;
49942;SDS011;36011;53.362;58.948;2022-10-12T17:22:33;4.82;;;2.30;;
49942;SDS011;36011;53.362;58.948;2022-10-12T17:25:40;9.13;;;2.75;;
49942;SDS011;36011;53.362;58.948;2022-10-12T17:31:45;7.03;;;2.70;;
49942;SDS011;36011;53.362;58.948;2022-10-12T17:34:50;7.72;;;2.65;;
49942;SDS011;36011;53.362;58.948;2022-10-12T17:37:54;3.45;;;2.30;;
49942;SDS011;36011;53.362;58.948;2022-10-12T17:47:04;4.60;;;2.17;;
49942;SDS011;36011;53.362;58.948;2022-10-12T17:50:10;5.05;;;2.03;;
49942;SDS011;36011;53.362;58.948;2022-10-12T17:53:12;9.50;;;2.10;;
49942;SDS011;36011;53.362;58.948;2022-10-12T17:56:16;5.80;;;2.22;;
49942;SDS011;36011;53.362;58.948;2022-10-12T18:02:22;10.45;;;4.47;;
49942;SDS011;36011;53.362;58.948;2022-10-12T18:05:23;14.93;;;6.28;;
49942;SDS011;36011;53.362;58.948;2022-10-12T18:08:27;6.43;;;2.50;;
49942;SDS011;36011;53.362;58.948;2022-10-12T18:11:34;5.72;;;2.75;;
49942;SDS011;36011;53.362;58.948;2022-10-12T18:14:39;7.47;;;2.28;;
49942;SDS011;36011;53.362;58.948;2022-10-12T18:17:45;7.05;;;2.33;;
49942;SDS011;36011;53.362;58.948;2022-10-12T18:20:49;6.10;;;2.25;;
49942;SDS011;36011;53.362;58.948;2022-10-12T18:23:53;4.65;;;1.90;;
49942;SDS011;36011;53.362;58.948;2022-10-12T18:26:57;5.03;;;2.17;;
49942;SDS011;36011;53.362;58.948;2022-10-12T18:29:58;4.05;;;2.20;;
49942;SDS011;36011;53.362;58.948;2022-10-12T18:33:00;6.65;;;1.90;;
49942;SDS011;36011;53.362;58.948;2022-10-12T18:36:04;5.65;;;1.98;;
49942;SDS011;36011;53.362;58.948;2022-10-12T18:39:09;6.78;;;1.92;;
49942;SDS011;36011;53.362;58.948;2022-10-12T18:42:10;6.90;;;1.88;;
49942;SDS011;36011;53.362;58.948;2022-10-12T18:45:12;5.35;;;1.95;;
49942;SDS011;36011;53.362;58.948;2022-10-12T18:48:19;6.18;;;2.05;;
49942;SDS011;36011;53.362;58.948;2022-10-12T18:51:26;5.18;;;1.98;;
49942;SDS011;36011;53.362;58.948;2022-10-12T18:54:29;5.30;;;1.73;;
49942;SDS011;36011;53.362;58.948;2022-10-12T18:57:31;6.57;;;1.92;;
49942;SDS011;36011;53.362;58.948;2022-10-12T19:00:32;4.18;;;2.00;;
49942;SDS011;36011;53.362;58.948;2022-10-12T19:03:35;6.40;;;1.70;;
49942;SDS011;36011;53.362;58.948;2022-10-12T19:06:39;6.32;;;2.08;;
49942;SDS011;36011;53.362;58.948;2022-10-12T19:09:45;4.95;;;1.98;;
49942;SDS011;36011;53.362;58.948;2022-10-12T19:12:47;10.40;;;2.50;;
49942;SDS011;36011;53.362;58.948;2022-10-12T19:15:48;5.47;;;2.15;;
49942;SDS011;36011;53.362;58.948;2022-10-12T19:18:56;5.63;;;2.13;;
49942;SDS011;36011;53.362;58.948;2022-10-12T19:22:02;6.75;;;2.00;;
49942;SDS011;36011;53.362;58.948;2022-10-12T19:25:03;3.67;;;1.50;;
49942;SDS011;36011;53.362;58.948;2022-10-12T19:28:05;5.85;;;1.70;;
49942;SDS011;36011;53.362;58.948;2022-10-12T19:31:14;4.32;;;1.40;;
49942;SDS011;36011;53.362;58.948;2022-10-12T19:34:19;4.75;;;1.70;;
49942;SDS011;36011;53.362;58.948;2022-10-12T19:37:23;4.13;;;1.52;;
49942;SDS011;36011;53.362;58.948;2022-10-12T19:40:28;6.18;;;1.75;;
49942;SDS011;36011;53.362;58.948;2022-10-12T19:43:31;4.75;;;1.38;;
49942;SDS011;36011;53.362;58.948;2022-10-12T19:46:33;4.00;;;1.33;;
49942;SDS011;36011;53.362;58.948;2022-10-12T19:49:35;4.95;;;2.05;;
49942;SDS011;36011;53.362;58.948;2022-10-12T19:52:39;5.35;;;1.77;;
49942;SDS011;36011;53.362;58.948;2022-10-12T19:55:40;9.93;;;1.63;;
49942;SDS011;36011;53.362;58.948;2022-10-12T19:58:48;8.23;;;1.88;;
49942;SDS011;36011;53.362;58.948;2022-10-12T20:01:51;3.10;;;1.60;;
49942;SDS011;36011;53.362;58.948;2022-10-12T20:04:55;4.60;;;1.65;;
49942;SDS011;36011;53.362;58.948;2022-10-12T20:07:59;4.68;;;1.80;;
49942;SDS011;36011;53.362;58.948;2022-10-12T20:11:00;8.35;;;1.95;;
49942;SDS011;36011;53.362;58.948;2022-10-12T20:14:05;2.67;;;1.50;;
49942;SDS011;36011;53.362;58.948;2022-10-12T20:17:06;4.70;;;1.45;;
49942;SDS011;36011;53.362;58.948;2022-10-12T20:20:08;5.70;;;1.55;;
49942;SDS011;36011;53.362;58.948;2022-10-12T20:23:10;5.25;;;1.30;;
49942;SDS011;36011;53.362;58.948;2022-10-12T20:26:12;4.22;;;1.17;;
49942;SDS011;36011;53.362;58.948;2022-10-12T20:29:19;4.55;;;1.88;;
49942;SDS011;36011;53.362;58.948;2022-10-12T20:32:23;1.27;;;1.00;;